sensor_id;sensor_type;location;lat;lon;timestamp;pressure;altitude;pressure_sealevel;temperature;humidity
44385;BME280;30101;32.778;34.994;2023-02-04T00:03:05;97778.09;;;9.31;78.46
44385;BME280;30101;32.778;34.994;2023-02-04T00:08:09;97769.47;;;9.29;78.52
44385;BME280;30101;32.778;34.994;2023-02-04T00:13:12;97757.19;;;9.28;78.67
44385;BME280;30101;32.778;34.994;2023-02-04T00:18:15;97753.09;;;9.26;78.82
44385;BME280;30101;32.778;34.994;2023-02-04T00:23:18;97765.16;;;9.28;79.60
44385;BME280;30101;32.778;34.994;2023-02-04T00:28:21;97758.63;;;9.31;79.95
44385;BME280;30101;32.778;34.994;2023-02-04T00:33:24;97749.81;;;9.30;79.70
44385;BME280;30101;32.778;34.994;2023-02-04T00:38:27;97742.84;;;9.29;80.00
44385;BME280;30101;32.778;34.994;2023-02-04T00:43:31;97726.84;;;9.23;80.27
44385;BME280;30101;32.778;34.994;2023-02-04T00:48:34;97727.25;;;9.19;80.75
44385;BME280;30101;32.778;34.994;2023-02-04T00:53:37;97711.47;;;9.18;80.38
44385;BME280;30101;32.778;34.994;2023-02-04T00:58:40;97716.59;;;9.19;80.51
44385;BME280;30101;32.778;34.994;2023-02-04T01:03:43;97710.25;;;9.21;80.96
44385;BME280;30101;32.778;34.994;2023-02-04T01:08:46;97709.66;;;9.25;81.56
44385;BME280;30101;32.778;34.994;2023-02-04T01:13:50;97696.13;;;9.27;81.85
44385;BME280;30101;32.778;34.994;2023-02-04T01:18:54;97684.84;;;9.31;80.99
44385;BME280;30101;32.778;34.994;2023-02-04T01:23:59;97679.09;;;9.34;82.15
44385;BME280;30101;32.778;34.994;2023-02-04T01:29:02;97669.28;;;9.41;81.58
44385;BME280;30101;32.778;34.994;2023-02-04T01:34:06;97661.69;;;9.45;82.07
44385;BME280;30101;32.778;34.994;2023-02-04T01:39:11;97660.28;;;9.49;81.43
44385;BME280;30101;32.778;34.994;2023-02-04T01:44:14;97648.75;;;9.55;82.19
44385;BME280;30101;32.778;34.994;2023-02-04T01:49:18;97636.06;;;9.57;81.60
44385;BME280;30101;32.778;34.994;2023-02-04T01:54:21;97645.28;;;9.61;81.95
44385;BME280;30101;32.778;34.994;2023-02-04T01:59:25;97618.44;;;9.63;82.39
44385;BME280;30101;32.778;34.994;2023-02-04T02:04:31;97627.63;;;9.67;82.62
44385;BME280;30101;32.778;34.994;2023-02-04T02:09:36;97617.19;;;9.72;82.43
44385;BME280;30101;32.778;34.994;2023-02-04T02:14:40;97608.56;;;9.70;82.68
44385;BME280;30101;32.778;34.994;2023-02-04T02:19:43;97605.31;;;9.68;83.48
44385;BME280;30101;32.778;34.994;2023-02-04T02:24:46;97593.19;;;9.65;83.03
44385;BME280;30101;32.778;34.994;2023-02-04T02:29:50;97592.97;;;9.67;83.39
44385;BME280;30101;32.778;34.994;2023-02-04T02:34:53;97575.13;;;9.67;83.09
44385;BME280;30101;32.778;34.994;2023-02-04T02:39:56;97568.81;;;9.68;83.34
44385;BME280;30101;32.778;34.994;2023-02-04T02:44:59;97575.56;;;9.71;82.80
44385;BME280;30101;32.778;34.994;2023-02-04T02:50:05;97578.22;;;9.71;83.68
44385;BME280;30101;32.778;34.994;2023-02-04T02:55:17;97582.50;;;9.79;83.42
44385;BME280;30101;32.778;34.994;2023-02-04T03:00:26;97579.81;;;9.85;83.57
44385;BME280;30101;32.778;34.994;2023-02-04T03:05:39;97562.59;;;9.88;84.04
44385;BME280;30101;32.778;34.994;2023-02-04T03:10:44;97560.34;;;9.85;83.63
44385;BME280;30101;32.778;34.994;2023-02-04T03:15:48;97558.91;;;9.82;83.35
44385;BME280;30101;32.778;34.994;2023-02-04T03:20:52;97570.19;;;9.78;83.85
44385;BME280;30101;32.778;34.994;2023-02-04T03:25:55;97569.59;;;9.76;84.38
44385;BME280;30101;32.778;34.994;2023-02-04T03:30:58;97601.41;;;9.70;84.14
44385;BME280;30101;32.778;34.994;2023-02-04T03:36:01;97587.47;;;9.49;84.22
44385;BME280;30101;32.778;34.994;2023-02-04T03:41:04;97589.97;;;9.30;84.38
44385;BME280;30101;32.778;34.994;2023-02-04T03:46:08;97576.84;;;9.09;85.12
44385;BME280;30101;32.778;34.994;2023-02-04T03:51:11;97567.44;;;8.93;85.24
44385;BME280;30101;32.778;34.994;2023-02-04T03:56:14;97583.59;;;8.91;85.79
44385;BME280;30101;32.778;34.994;2023-02-04T04:01:18;97589.34;;;8.95;85.46
44385;BME280;30101;32.778;34.994;2023-02-04T04:06:21;97596.53;;;9.01;85.20
44385;BME280;30101;32.778;34.994;2023-02-04T04:11:25;97609.41;;;9.11;85.53
44385;BME280;30101;32.778;34.994;2023-02-04T04:16:28;97607.38;;;9.13;85.13
44385;BME280;30101;32.778;34.994;2023-02-04T04:21:31;97608.81;;;9.15;85.42
44385;BME280;30101;32.778;34.994;2023-02-04T04:26:35;97601.44;;;9.17;84.93
44385;BME280;30101;32.778;34.994;2023-02-04T04:31:38;97585.44;;;9.17;85.95
44385;BME280;30101;32.778;34.994;2023-02-04T04:36:41;97580.75;;;9.19;85.09
44385;BME280;30101;32.778;34.994;2023-02-04T04:41:44;97580.75;;;9.26;85.43
44385;BME280;30101;32.778;34.994;2023-02-04T04:46:47;97584.00;;;9.35;85.02
44385;BME280;30101;32.778;34.994;2023-02-04T04:51:51;97599.38;;;9.39;84.89
44385;BME280;30101;32.778;34.994;2023-02-04T04:56:54;97603.69;;;9.47;84.69
44385;BME280;30101;32.778;34.994;2023-02-04T05:01:57;97613.72;;;9.52;85.54
44385;BME280;30101;32.778;34.994;2023-02-04T05:07:00;97614.53;;;9.59;85.55
44385;BME280;30101;32.778;34.994;2023-02-04T05:12:03;97608.81;;;9.62;85.27
44385;BME280;30101;32.778;34.994;2023-02-04T05:17:06;97610.81;;;9.66;85.05
44385;BME280;30101;32.778;34.994;2023-02-04T05:22:10;97618.00;;;9.72;85.20
44385;BME280;30101;32.778;34.994;2023-02-04T05:27:13;97621.31;;;9.68;86.26
44385;BME280;30101;32.778;34.994;2023-02-04T05:32:16;97626.00;;;9.72;86.12
44385;BME280;30101;32.778;34.994;2023-02-04T05:37:20;97636.63;;;9.79;86.04
44385;BME280;30101;32.778;34.994;2023-02-04T05:42:23;97637.03;;;9.89;86.13
44385;BME280;30101;32.778;34.994;2023-02-04T05:47:26;97633.94;;;9.99;86.34
44385;BME280;30101;32.778;34.994;2023-02-04T05:52:29;97632.09;;;9.99;86.59
44385;BME280;30101;32.778;34.994;2023-02-04T05:57:32;97639.91;;;10.01;86.30
44385;BME280;30101;32.778;34.994;2023-02-04T06:02:35;97653.00;;;10.03;86.14
44385;BME280;30101;32.778;34.994;2023-02-04T06:07:38;97650.75;;;9.93;86.97
44385;BME280;30101;32.778;34.994;2023-02-04T06:12:41;97647.13;;;9.81;86.11
44385;BME280;30101;32.778;34.994;2023-02-04T06:17:44;97645.88;;;9.77;86.92
44385;BME280;30101;32.778;34.994;2023-02-04T06:22:47;97656.13;;;9.73;87.10
44385;BME280;30101;32.778;34.994;2023-02-04T06:27:51;97661.28;;;9.68;86.83
44385;BME280;30101;32.778;34.994;2023-02-04T06:32:54;97682.38;;;9.83;87.06
44385;BME280;30101;32.778;34.994;2023-02-04T06:37:59;97684.22;;;10.02;86.09
44385;BME280;30101;32.778;34.994;2023-02-04T06:43:04;97694.25;;;10.26;85.93
44385;BME280;30101;32.778;34.994;2023-02-04T06:48:07;97703.25;;;10.32;86.11
44385;BME280;30101;32.778;34.994;2023-02-04T06:53:10;97704.06;;;10.33;85.97
44385;BME280;30101;32.778;34.994;2023-02-04T06:58:13;97703.56;;;10.62;85.72
44385;BME280;30101;32.778;34.994;2023-02-04T07:03:16;97712.09;;;10.84;85.47
44385;BME280;30101;32.778;34.994;2023-02-04T07:08:19;97712.34;;;11.14;84.90
44385;BME280;30101;32.778;34.994;2023-02-04T07:13:22;97718.69;;;11.20;84.51
44385;BME280;30101;32.778;34.994;2023-02-04T07:18:26;97718.84;;;11.31;84.27
44385;BME280;30101;32.778;34.994;2023-02-04T07:23:29;97725.63;;;11.27;84.02
44385;BME280;30101;32.778;34.994;2023-02-04T07:28:32;97720.47;;;11.32;83.82
44385;BME280;30101;32.778;34.994;2023-02-04T07:33:35;97732.03;;;11.26;83.42
44385;BME280;30101;32.778;34.994;2023-02-04T07:38:38;97732.06;;;11.20;83.90
44385;BME280;30101;32.778;34.994;2023-02-04T07:43:41;97739.72;;;11.10;83.71
44385;BME280;30101;32.778;34.994;2023-02-04T07:48:45;97741.59;;;11.02;83.39
44385;BME280;30101;32.778;34.994;2023-02-04T07:53:48;97741.78;;;11.07;83.24
44385;BME280;30101;32.778;34.994;2023-02-04T07:58:51;97744.56;;;11.26;82.59
44385;BME280;30101;32.778;34.994;2023-02-04T08:03:54;97752.59;;;11.26;81.53
44385;BME280;30101;32.778;34.994;2023-02-04T08:08:58;97755.44;;;11.24;81.60
44385;BME280;30101;32.778;34.994;2023-02-04T08:14:01;97745.75;;;11.30;81.08
44385;BME280;30101;32.778;34.994;2023-02-04T08:19:04;97746.06;;;11.47;80.88
44385;BME280;30101;32.778;34.994;2023-02-04T08:24:07;97753.59;;;11.63;80.09
44385;BME280;30101;32.778;34.994;2023-02-04T08:29:11;97747.88;;;11.53;79.75
44385;BME280;30101;32.778;34.994;2023-02-04T08:34:14;97739.78;;;11.34;79.11
44385;BME280;30101;32.778;34.994;2023-02-04T08:39:17;97740.78;;;11.40;79.63
44385;BME280;30101;32.778;34.994;2023-02-04T08:44:20;97742.03;;;11.62;79.14
44385;BME280;30101;32.778;34.994;2023-02-04T08:49:23;97727.47;;;11.90;78.01
44385;BME280;30101;32.778;34.994;2023-02-04T08:54:27;97725.44;;;12.10;77.98
44385;BME280;30101;32.778;34.994;2023-02-04T08:59:31;97721.00;;;12.23;77.63
44385;BME280;30101;32.778;34.994;2023-02-04T09:04:34;97711.44;;;12.52;77.08
44385;BME280;30101;32.778;34.994;2023-02-04T09:09:37;97710.19;;;13.03;75.30
44385;BME280;30101;32.778;34.994;2023-02-04T09:14:40;97724.28;;;13.28;74.66
44385;BME280;30101;32.778;34.994;2023-02-04T09:19:43;97727.59;;;12.93;74.44
44385;BME280;30101;32.778;34.994;2023-02-04T09:24:46;97739.63;;;12.11;75.58
44385;BME280;30101;32.778;34.994;2023-02-04T09:29:50;97746.31;;;11.45;76.47
44385;BME280;30101;32.778;34.994;2023-02-04T09:34:53;97720.47;;;11.32;77.33
44385;BME280;30101;32.778;34.994;2023-02-04T09:39:56;97720.00;;;11.67;77.17
44385;BME280;30101;32.778;34.994;2023-02-04T09:44:59;97701.97;;;11.87;77.28
44385;BME280;30101;32.778;34.994;2023-02-04T09:50:03;97694.44;;;12.03;77.26
44385;BME280;30101;32.778;34.994;2023-02-04T09:55:14;97683.66;;;12.28;76.40
44385;BME280;30101;32.778;34.994;2023-02-04T10:00:19;97676.06;;;12.43;75.76
44385;BME280;30101;32.778;34.994;2023-02-04T10:05:27;97661.13;;;12.54;75.20
44385;BME280;30101;32.778;34.994;2023-02-04T10:10:31;97667.81;;;12.63;74.38
44385;BME280;30101;32.778;34.994;2023-02-04T10:15:35;97663.22;;;12.70;73.92
44385;BME280;30101;32.778;34.994;2023-02-04T10:20:38;97665.41;;;12.73;73.32
44385;BME280;30101;32.778;34.994;2023-02-04T10:25:41;97659.78;;;12.93;73.05
44385;BME280;30101;32.778;34.994;2023-02-04T10:30:44;97650.25;;;12.97;72.24
44385;BME280;30101;32.778;34.994;2023-02-04T10:35:49;97651.88;;;12.98;71.75
44385;BME280;30101;32.778;34.994;2023-02-04T10:41:02;97647.34;;;13.29;71.25
44385;BME280;30101;32.778;34.994;2023-02-04T10:46:05;97654.72;;;13.33;70.00
44385;BME280;30101;32.778;34.994;2023-02-04T10:51:11;97646.63;;;12.91;71.10
44385;BME280;30101;32.778;34.994;2023-02-04T10:56:20;97653.81;;;12.61;71.56
44385;BME280;30101;32.778;34.994;2023-02-04T11:01:25;97647.63;;;11.62;73.74
44385;BME280;30101;32.778;34.994;2023-02-04T11:06:31;97665.16;;;11.01;75.91
44385;BME280;30101;32.778;34.994;2023-02-04T11:11:35;97666.63;;;10.52;76.94
44385;BME280;30101;32.778;34.994;2023-02-04T11:16:46;97659.31;;;10.35;77.53
44385;BME280;30101;32.778;34.994;2023-02-04T11:21:50;97655.44;;;10.24;77.76
44385;BME280;30101;32.778;34.994;2023-02-04T11:27:17;97654.59;;;10.30;78.30
44385;BME280;30101;32.778;34.994;2023-02-04T11:32:33;97669.41;;;10.26;78.30
44385;BME280;30101;32.778;34.994;2023-02-04T11:37:40;97657.69;;;10.34;78.45
44385;BME280;30101;32.778;34.994;2023-02-04T11:42:43;97667.03;;;10.56;79.22
44385;BME280;30101;32.778;34.994;2023-02-04T11:47:50;97662.34;;;10.90;78.60
44385;BME280;30101;32.778;34.994;2023-02-04T11:52:54;97661.63;;;11.07;78.53
44385;BME280;30101;32.778;34.994;2023-02-04T11:57:58;97654.50;;;11.26;78.49
44385;BME280;30101;32.778;34.994;2023-02-04T12:03:02;97664.16;;;11.27;78.13
44385;BME280;30101;32.778;34.994;2023-02-04T12:13:26;97662.44;;;11.90;79.13
44385;BME280;30101;32.778;34.994;2023-02-04T12:18:33;97661.50;;;12.02;79.36
44385;BME280;30101;32.778;34.994;2023-02-04T12:23:36;97652.44;;;12.03;79.19
44385;BME280;30101;32.778;34.994;2023-02-04T12:28:40;97641.72;;;12.03;79.33
44385;BME280;30101;32.778;34.994;2023-02-04T12:33:44;97637.78;;;12.24;79.20
44385;BME280;30101;32.778;34.994;2023-02-04T12:38:47;97632.00;;;12.27;79.22
44385;BME280;30101;32.778;34.994;2023-02-04T12:43:51;97628.28;;;12.10;79.12
44385;BME280;30101;32.778;34.994;2023-02-04T12:48:54;97630.72;;;11.93;79.05
44385;BME280;30101;32.778;34.994;2023-02-04T12:53:57;97635.78;;;11.76;78.96
44385;BME280;30101;32.778;34.994;2023-02-04T12:59:00;97625.06;;;11.83;77.82
44385;BME280;30101;32.778;34.994;2023-02-04T13:04:05;97613.84;;;11.93;77.17
44385;BME280;30101;32.778;34.994;2023-02-04T13:09:08;97612.94;;;11.99;76.57
44385;BME280;30101;32.778;34.994;2023-02-04T13:14:11;97611.25;;;12.23;76.48
44385;BME280;30101;32.778;34.994;2023-02-04T13:19:14;97609.88;;;12.32;75.62
44385;BME280;30101;32.778;34.994;2023-02-04T13:24:17;97607.34;;;12.37;75.44
44385;BME280;30101;32.778;34.994;2023-02-04T13:29:21;97597.69;;;12.36;75.32
44385;BME280;30101;32.778;34.994;2023-02-04T13:34:25;97607.59;;;12.17;75.20
44385;BME280;30101;32.778;34.994;2023-02-04T13:39:29;97618.78;;;12.14;74.92
44385;BME280;30101;32.778;34.994;2023-02-04T13:44:32;97616.53;;;12.29;74.70
44385;BME280;30101;32.778;34.994;2023-02-04T13:49:35;97618.66;;;12.57;73.90
44385;BME280;30101;32.778;34.994;2023-02-04T13:54:38;97621.97;;;12.71;73.77
44385;BME280;30101;32.778;34.994;2023-02-04T13:59:41;97616.81;;;12.69;73.42
44385;BME280;30101;32.778;34.994;2023-02-04T14:04:45;97633.03;;;12.75;73.22
44385;BME280;30101;32.778;34.994;2023-02-04T14:09:49;97635.50;;;12.76;73.40
44385;BME280;30101;32.778;34.994;2023-02-04T14:14:53;97635.72;;;12.75;72.62
44385;BME280;30101;32.778;34.994;2023-02-04T14:20:01;97644.22;;;12.72;72.56
44385;BME280;30101;32.778;34.994;2023-02-04T14:25:05;97642.53;;;12.59;72.13
44385;BME280;30101;32.778;34.994;2023-02-04T14:30:18;97642.31;;;12.42;72.49
44385;BME280;30101;32.778;34.994;2023-02-04T14:35:23;97648.34;;;12.37;72.78
44385;BME280;30101;32.778;34.994;2023-02-04T14:40:27;97647.09;;;12.22;72.54
44385;BME280;30101;32.778;34.994;2023-02-04T14:45:30;97645.38;;;12.09;73.21
44385;BME280;30101;32.778;34.994;2023-02-04T14:50:36;97659.19;;;12.06;73.01
44385;BME280;30101;32.778;34.994;2023-02-04T14:55:39;97674.31;;;11.94;72.99
44385;BME280;30101;32.778;34.994;2023-02-04T15:00:43;97660.53;;;11.72;73.35
44385;BME280;30101;32.778;34.994;2023-02-04T15:05:50;97671.22;;;11.47;74.18
44385;BME280;30101;32.778;34.994;2023-02-04T15:10:53;97677.53;;;11.27;74.26
44385;BME280;30101;32.778;34.994;2023-02-04T15:15:57;97680.78;;;11.29;74.97
44385;BME280;30101;32.778;34.994;2023-02-04T15:21:00;97687.25;;;11.47;74.18
44385;BME280;30101;32.778;34.994;2023-02-04T15:26:04;97704.34;;;11.46;74.91
44385;BME280;30101;32.778;34.994;2023-02-04T15:31:07;97716.22;;;11.18;75.13
44385;BME280;30101;32.778;34.994;2023-02-04T15:36:11;97722.94;;;10.96;75.66
44385;BME280;30101;32.778;34.994;2023-02-04T15:41:14;97716.84;;;10.82;75.91
44385;BME280;30101;32.778;34.994;2023-02-04T15:46:17;97718.09;;;10.73;76.39
44385;BME280;30101;32.778;34.994;2023-02-04T15:51:20;97720.78;;;10.73;76.61
44385;BME280;30101;32.778;34.994;2023-02-04T15:56:26;97711.94;;;10.72;76.63
44385;BME280;30101;32.778;34.994;2023-02-04T16:01:29;97710.72;;;10.75;75.97
44385;BME280;30101;32.778;34.994;2023-02-04T16:06:32;97706.56;;;10.79;76.06
44385;BME280;30101;32.778;34.994;2023-02-04T16:11:37;97712.50;;;10.81;76.11
44385;BME280;30101;32.778;34.994;2023-02-04T16:16:46;97716.63;;;10.84;76.23
44385;BME280;30101;32.778;34.994;2023-02-04T16:21:49;97726.81;;;11.00;75.92
44385;BME280;30101;32.778;34.994;2023-02-04T16:26:53;97722.41;;;11.12;75.80
44385;BME280;30101;32.778;34.994;2023-02-04T16:31:56;97725.28;;;11.17;75.33
44385;BME280;30101;32.778;34.994;2023-02-04T16:37:00;97737.44;;;11.13;75.91
44385;BME280;30101;32.778;34.994;2023-02-04T16:42:05;97739.78;;;10.96;76.11
44385;BME280;30101;32.778;34.994;2023-02-04T16:47:08;97727.69;;;10.87;76.38
44385;BME280;30101;32.778;34.994;2023-02-04T16:52:11;97727.09;;;10.85;76.96
44385;BME280;30101;32.778;34.994;2023-02-04T16:57:15;97732.06;;;10.82;77.25
44385;BME280;30101;32.778;34.994;2023-02-04T17:02:18;97722.38;;;10.80;77.28
44385;BME280;30101;32.778;34.994;2023-02-04T17:07:21;97721.19;;;10.76;77.65
44385;BME280;30101;32.778;34.994;2023-02-04T17:12:26;97711.97;;;10.66;77.82
44385;BME280;30101;32.778;34.994;2023-02-04T17:17:35;97713.22;;;10.63;76.93
44385;BME280;30101;32.778;34.994;2023-02-04T17:22:38;97724.91;;;10.69;77.71
44385;BME280;30101;32.778;34.994;2023-02-04T17:27:42;97729.22;;;10.70;77.45
44385;BME280;30101;32.778;34.994;2023-02-04T17:32:45;97737.84;;;10.65;78.20
44385;BME280;30101;32.778;34.994;2023-02-04T17:37:50;97736.19;;;10.71;78.09
44385;BME280;30101;32.778;34.994;2023-02-04T17:42:58;97734.50;;;10.83;78.03
44385;BME280;30101;32.778;34.994;2023-02-04T17:48:03;97726.47;;;10.90;78.02
44385;BME280;30101;32.778;34.994;2023-02-04T17:53:06;97735.03;;;10.98;78.44
44385;BME280;30101;32.778;34.994;2023-02-04T17:58:13;97736.63;;;11.06;78.30
44385;BME280;30101;32.778;34.994;2023-02-04T18:03:20;97741.97;;;11.06;78.64
44385;BME280;30101;32.778;34.994;2023-02-04T18:08:37;97736.88;;;10.98;78.05
44385;BME280;30101;32.778;34.994;2023-02-04T18:13:43;97733.22;;;10.92;78.89
44385;BME280;30101;32.778;34.994;2023-02-04T18:18:46;97739.38;;;10.93;78.40
44385;BME280;30101;32.778;34.994;2023-02-04T18:23:59;97745.53;;;10.93;78.43
44385;BME280;30101;32.778;34.994;2023-02-04T18:29:27;97758.88;;;10.93;78.52
44385;BME280;30101;32.778;34.994;2023-02-04T18:34:43;97754.56;;;10.99;78.78
44385;BME280;30101;32.778;34.994;2023-02-04T18:39:46;97759.91;;;10.99;77.77
44385;BME280;30101;32.778;34.994;2023-02-04T18:44:49;97757.81;;;11.07;77.79
44385;BME280;30101;32.778;34.994;2023-02-04T18:49:52;97766.22;;;11.11;78.27
44385;BME280;30101;32.778;34.994;2023-02-04T18:54:56;97768.25;;;11.16;77.45
44385;BME280;30101;32.778;34.994;2023-02-04T19:00:22;97772.19;;;11.13;77.68
44385;BME280;30101;32.778;34.994;2023-02-04T19:10:39;97766.63;;;11.15;77.20
44385;BME280;30101;32.778;34.994;2023-02-04T19:26:26;97746.38;;;11.32;76.10
44385;BME280;30101;32.778;34.994;2023-02-04T19:31:34;97743.72;;;11.32;76.32
44385;BME280;30101;32.778;34.994;2023-02-04T19:36:38;97746.34;;;11.39;76.19
44385;BME280;30101;32.778;34.994;2023-02-04T19:41:51;97735.78;;;11.44;76.13
44385;BME280;30101;32.778;34.994;2023-02-04T19:46:56;97738.66;;;11.49;75.64
44385;BME280;30101;32.778;34.994;2023-02-04T19:51:59;97736.38;;;11.52;75.32
44385;BME280;30101;32.778;34.994;2023-02-04T19:57:23;97737.19;;;11.53;75.06
44385;BME280;30101;32.778;34.994;2023-02-04T20:02:31;97733.47;;;11.54;74.20
44385;BME280;30101;32.778;34.994;2023-02-04T20:07:36;97738.06;;;11.47;74.39
44385;BME280;30101;32.778;34.994;2023-02-04T20:12:40;97745.03;;;11.48;74.07
44385;BME280;30101;32.778;34.994;2023-02-04T20:17:47;97746.25;;;11.52;73.08
44385;BME280;30101;32.778;34.994;2023-02-04T20:22:53;97745.81;;;11.55;72.91
44385;BME280;30101;32.778;34.994;2023-02-04T20:27:58;97745.38;;;11.58;73.10
44385;BME280;30101;32.778;34.994;2023-02-04T20:38:21;97742.03;;;11.62;72.11
44385;BME280;30101;32.778;34.994;2023-02-04T20:43:24;97734.88;;;11.63;72.71
44385;BME280;30101;32.778;34.994;2023-02-04T20:48:32;97726.22;;;11.61;72.50
44385;BME280;30101;32.778;34.994;2023-02-04T20:58:47;97728.31;;;11.59;71.98
44385;BME280;30101;32.778;34.994;2023-02-04T21:03:50;97723.44;;;11.49;72.50
44385;BME280;30101;32.778;34.994;2023-02-04T21:08:54;97717.72;;;11.46;72.18
44385;BME280;30101;32.778;34.994;2023-02-04T21:13:57;97701.72;;;11.39;72.03
44385;BME280;30101;32.778;34.994;2023-02-04T21:19:01;97703.75;;;11.37;72.07
44385;BME280;30101;32.778;34.994;2023-02-04T21:24:05;97698.47;;;11.30;71.80
44385;BME280;30101;32.778;34.994;2023-02-04T21:29:08;97679.59;;;11.25;71.82
44385;BME280;30101;32.778;34.994;2023-02-04T21:34:12;97687.22;;;11.22;72.15
44385;BME280;30101;32.778;34.994;2023-02-04T21:39:15;97683.97;;;11.20;71.69
44385;BME280;30101;32.778;34.994;2023-02-04T21:44:18;97676.34;;;11.17;71.96
44385;BME280;30101;32.778;34.994;2023-02-04T21:49:22;97666.94;;;11.14;71.39
44385;BME280;30101;32.778;34.994;2023-02-04T21:54:25;97666.72;;;11.16;71.94
44385;BME280;30101;32.778;34.994;2023-02-04T21:59:32;97662.63;;;11.13;71.97
44385;BME280;30101;32.778;34.994;2023-02-04T22:04:35;97667.34;;;11.11;71.44
44385;BME280;30101;32.778;34.994;2023-02-04T22:09:38;97659.34;;;11.11;71.73
44385;BME280;30101;32.778;34.994;2023-02-04T22:14:41;97654.38;;;11.15;71.67
44385;BME280;30101;32.778;34.994;2023-02-04T22:19:44;97650.69;;;11.16;71.15
44385;BME280;30101;32.778;34.994;2023-02-04T22:24:47;97652.47;;;11.22;71.89
44385;BME280;30101;32.778;34.994;2023-02-04T22:29:50;97650.59;;;11.29;71.43
44385;BME280;30101;32.778;34.994;2023-02-04T22:34:54;97649.50;;;11.37;71.17
44385;BME280;30101;32.778;34.994;2023-02-04T22:39:57;97653.78;;;11.38;71.58
44385;BME280;30101;32.778;34.994;2023-02-04T22:45:00;97647.72;;;11.24;71.54
44385;BME280;30101;32.778;34.994;2023-02-04T22:50:05;97633.84;;;11.15;72.18
44385;BME280;30101;32.778;34.994;2023-02-04T22:55:09;97626.22;;;11.12;71.83
44385;BME280;30101;32.778;34.994;2023-02-04T23:00:14;97626.63;;;11.16;72.55
44385;BME280;30101;32.778;34.994;2023-02-04T23:05:18;97612.19;;;11.23;72.06
44385;BME280;30101;32.778;34.994;2023-02-04T23:10:21;97612.28;;;11.35;72.53
44385;BME280;30101;32.778;34.994;2023-02-04T23:15:24;97615.50;;;11.44;72.17
44385;BME280;30101;32.778;34.994;2023-02-04T23:20:27;97614.03;;;11.48;71.72
44385;BME280;30101;32.778;34.994;2023-02-04T23:25:32;97609.97;;;11.45;71.48
44385;BME280;30101;32.778;34.994;2023-02-04T23:30:35;97594.97;;;11.38;72.11
44385;BME280;30101;32.778;34.994;2023-02-04T23:35:39;97596.19;;;11.42;71.52
44385;BME280;30101;32.778;34.994;2023-02-04T23:40:42;97592.06;;;11.46;71.47
44385;BME280;30101;32.778;34.994;2023-02-04T23:45:45;97585.91;;;11.45;71.50
44385;BME280;30101;32.778;34.994;2023-02-04T23:50:48;97593.75;;;11.40;71.33
44385;BME280;30101;32.778;34.994;2023-02-04T23:55:51;97569.75;;;11.33;71.86
